This is the latest recevied weather packets stored in our database for station/object KB1ZFK. If no packets are shown the sender has not sent any weather packets the latest 1 day(s).
| Time | Temp. | Humidity | Pressure | Rain* | Wind** | Luminosity | Snow |
|---|---|---|---|---|---|---|---|
| 1778005845 | 27.78° C | 34% | 1005.3 hPa | 0 mm | 1.79 m/s, 171° | 847 W/m² | - |
| 1778005541 | 28.33° C | 34% | 1005.5 hPa | 0 mm | 1.34 m/s, 316° | 195 W/m² | - |
| 1778005238 | 27.78° C | 33% | 1005.5 hPa | 0 mm | 1.34 m/s, 162° | 856 W/m² | - |
| 1778004935 | 27.22° C | 35% | 1005.7 hPa | 0 mm | 1.79 m/s, 176° | 872 W/m² | - |
| 1778004632 | 27.22° C | 35% | 1005.7 hPa | 0 mm | 1.34 m/s, 263° | 226 W/m² | - |
| 1778004328 | 26.67° C | 36% | 1005.7 hPa | 0 mm | 2.24 m/s, 139° | 792 W/m² | - |
| 1778004027 | 26.67° C | 35% | 1005.6 hPa | 0 mm | 1.34 m/s, 271° | 371 W/m² | - |
| 1778003726 | 27.22° C | 35% | 1005.9 hPa | 0 mm | 3.13 m/s, 241° | 854 W/m² | - |
| 1778003423 | 27.78° C | 34% | 1005.9 hPa | 0 mm | 2.68 m/s, 146° | 221 W/m² | - |
| 1778003120 | 27.22° C | 35% | 1005.7 hPa | 0 mm | 1.34 m/s, 284° | 874 W/m² | - |
| 1778002816 | 28.33° C | 34% | 1006 hPa | 0 mm | 2.24 m/s, 222° | 846 W/m² | - |
| 1778002513 | 27.78° C | 34% | 1005.8 hPa | 0 mm | 0.89 m/s, 332° | 778 W/m² | - |
| 1778002210 | 26.67° C | 35% | 1006.2 hPa | 0 mm | 2.24 m/s, 95° | 820 W/m² | - |
| 1778001908 | 27.78° C | 35% | 1006 hPa | 0 mm | 2.24 m/s, 114° | 178 W/m² | - |
| 1778001603 | 27.78° C | 35% | 1006 hPa | 0 mm | 1.79 m/s, 151° | 816 W/m² | - |
| 1778001299 | 27.22° C | 36% | 1006.3 hPa | 0 mm | 2.24 m/s, 190° | 858 W/m² | - |
| 1778000996 | 26.67° C | 36% | 1006.3 hPa | 0 mm | 1.79 m/s, 67° | 665 W/m² | - |
| 1778000692 | 27.78° C | 36% | 1006.1 hPa | 0 mm | 1.79 m/s, 194° | 266 W/m² | - |
| 1778000388 | 27.22° C | 38% | 1006.2 hPa | 0 mm | 1.34 m/s, 312° | 796 W/m² | - |
| 1778000083 | 27.78° C | 37% | 1006.5 hPa | 0 mm | 1.79 m/s, 330° | 778 W/m² | - |
| 1777999774 | 26.67° C | 38% | 1006.4 hPa | 0 mm | 1.34 m/s, 182° | 819 W/m² | - |
| 1777999471 | 27.22° C | 38% | 1006.7 hPa | 0 mm | 0.89 m/s, 334° | 835 W/m² | - |
| 1777999169 | 27.22° C | 39% | 1006.6 hPa | 0 mm | 0.89 m/s, 295° | 830 W/m² | - |
| 1777998868 | 26.67° C | 41% | 1006.8 hPa | 0 mm | 0.89 m/s, 188° | 688 W/m² | - |
| 1777998566 | 26.67° C | 41% | 1006.8 hPa | 0 mm | 1.34 m/s, 181° | 750 W/m² | - |
* Rain latest hour (hover to see other rain measurements)
** Current wind speed in m/s (hover to see current wind gust speed)